createdAt,value
2023-01-09T00:01:50.486Z,43.70
2023-01-09T00:04:19.599Z,42.60
2023-01-09T00:06:54.068Z,40.50
2023-01-09T00:09:24.577Z,42.00
2023-01-09T00:11:54.959Z,41.30
2023-01-09T00:14:24.341Z,39.00
2023-01-09T00:16:55.499Z,39.60
2023-01-09T00:19:23.971Z,40.40
2023-01-09T00:21:52.237Z,34.30
2023-01-09T00:24:20.497Z,40.60
2023-01-09T00:26:48.979Z,37.80
2023-01-09T00:29:18.087Z,31.30
2023-01-09T00:31:46.385Z,34.40
2023-01-09T00:34:14.752Z,32.90
2023-01-09T00:36:43.062Z,30.90
2023-01-09T00:39:11.493Z,30.10
2023-01-09T00:41:47.128Z,34.10
2023-01-09T00:44:35.004Z,35.60
2023-01-09T00:47:07.964Z,37.80
2023-01-09T00:49:37.783Z,34.40
2023-01-09T00:52:08.102Z,33.80
2023-01-09T00:54:37.309Z,35.20
2023-01-09T00:57:05.934Z,34.20
2023-01-09T00:59:34.282Z,36.50
2023-01-09T01:02:02.801Z,37.30
2023-01-09T01:04:49.901Z,40.80
2023-01-09T01:07:37.228Z,43.60
2023-01-09T01:10:13.059Z,43.30
2023-01-09T01:12:41.487Z,43.10
2023-01-09T01:15:11.014Z,44.80
2023-01-09T01:17:41.090Z,42.70
2023-01-09T01:20:13.432Z,41.50
2023-01-09T01:22:42.574Z,41.30
2023-01-09T01:25:13.689Z,39.80
2023-01-09T01:27:42.007Z,37.90
2023-01-09T01:30:13.679Z,33.00
2023-01-09T01:32:42.081Z,36.70
2023-01-09T01:35:11.759Z,35.60
2023-01-09T01:37:40.867Z,35.30
2023-01-09T01:40:11.693Z,33.00
2023-01-09T01:42:47.429Z,33.40
2023-01-09T01:45:28.276Z,34.10
2023-01-09T01:48:07.130Z,33.10
2023-01-09T01:50:48.386Z,32.70
2023-01-09T01:53:24.918Z,30.80
2023-01-09T01:56:12.155Z,31.10
2023-01-09T01:58:45.688Z,30.50
2023-01-09T02:01:15.299Z,29.50
2023-01-09T02:03:45.207Z,31.40
2023-01-09T02:06:14.094Z,30.30
2023-01-09T02:08:43.824Z,28.60
2023-01-09T02:11:14.711Z,30.70
2023-01-09T02:13:43.096Z,28.60
2023-01-09T02:16:45.695Z,29.80
2023-01-09T02:19:22.980Z,28.00
2023-01-09T02:22:16.378Z,27.20
2023-01-09T02:25:20.079Z,28.30
2023-01-09T02:28:20.737Z,27.80
2023-01-09T02:31:40.662Z,28.30
2023-01-09T02:34:31.502Z,29.00
2023-01-09T02:37:09.145Z,29.50
2023-01-09T02:39:47.564Z,30.50
2023-01-09T02:42:24.449Z,28.10
2023-01-09T02:44:53.647Z,27.80
2023-01-09T02:47:21.943Z,24.70
2023-01-09T02:50:00.326Z,27.60
2023-01-09T02:52:48.049Z,25.90
2023-01-09T02:55:25.307Z,25.50
2023-01-09T02:58:04.901Z,26.20
2023-01-09T03:01:01.442Z,28.20
2023-01-09T03:03:45.412Z,27.80
2023-01-09T03:06:32.785Z,26.60
2023-01-09T03:09:12.131Z,26.90
2023-01-09T03:11:47.882Z,25.10
2023-01-09T03:14:21.013Z,26.30
2023-01-09T03:16:55.577Z,26.10
2023-01-09T03:19:29.793Z,25.80
2023-01-09T03:21:59.077Z,24.60
2023-01-09T03:24:27.597Z,29.00
2023-01-09T03:26:55.885Z,30.40
2023-01-09T03:29:24.245Z,32.10
2023-01-09T03:31:52.729Z,35.80
2023-01-09T03:34:20.994Z,34.50
2023-01-09T03:36:49.231Z,34.20
2023-01-09T03:39:17.624Z,36.50
2023-01-09T03:41:45.903Z,36.20
2023-01-09T03:44:14.258Z,33.80
2023-01-09T03:46:42.586Z,34.50
2023-01-09T03:49:10.924Z,24.90
2023-01-09T03:51:39.240Z,25.10
2023-01-09T03:54:07.773Z,25.70
2023-01-09T03:56:36.095Z,25.10
2023-01-09T03:59:04.446Z,24.50
2023-01-09T04:01:33.701Z,23.30
2023-01-09T04:04:02.255Z,30.70
2023-01-09T04:06:30.823Z,29.50
2023-01-09T04:08:59.221Z,27.90
2023-01-09T04:11:27.504Z,22.70
2023-01-09T04:13:55.786Z,23.70
2023-01-09T04:16:24.169Z,23.60
2023-01-09T04:18:52.471Z,23.70
2023-01-09T04:21:20.748Z,22.30
2023-01-09T04:23:49.114Z,24.40
2023-01-09T04:26:17.409Z,22.40
2023-01-09T04:28:45.642Z,22.90
2023-01-09T04:31:14.297Z,21.60
2023-01-09T04:33:42.601Z,22.20
2023-01-09T04:36:10.995Z,21.30
2023-01-09T04:38:39.509Z,20.80
2023-01-09T04:41:07.816Z,20.60
2023-01-09T04:43:36.210Z,19.10
2023-01-09T04:46:04.663Z,20.40
2023-01-09T04:48:32.979Z,19.90
2023-01-09T04:51:01.296Z,19.40
2023-01-09T04:53:29.644Z,19.20
2023-01-09T04:55:57.923Z,19.10
2023-01-09T04:58:26.170Z,19.00
2023-01-09T05:00:54.635Z,18.40
2023-01-09T05:03:22.980Z,19.60
2023-01-09T05:05:51.861Z,19.50
2023-01-09T05:08:20.255Z,17.80
2023-01-09T05:10:48.549Z,18.50
2023-01-09T05:13:16.809Z,17.50
2023-01-09T05:15:45.172Z,17.70
2023-01-09T05:18:13.456Z,16.40
2023-01-09T05:20:41.707Z,17.10
2023-01-09T05:23:10.119Z,15.50
2023-01-09T05:25:38.475Z,15.80
2023-01-09T05:28:06.797Z,16.40
2023-01-09T05:30:35.112Z,16.40
2023-01-09T05:33:03.366Z,15.50
2023-01-09T05:35:31.756Z,15.30
2023-01-09T05:38:00.119Z,15.40
2023-01-09T05:40:32.336Z,15.60
2023-01-09T05:43:06.995Z,14.10
2023-01-09T05:45:35.918Z,15.00
2023-01-09T05:48:04.281Z,16.80
2023-01-09T05:50:32.703Z,15.00
2023-01-09T05:53:01.126Z,15.60
2023-01-09T05:55:29.496Z,15.10
2023-01-09T05:57:57.943Z,14.70
2023-01-09T06:00:26.237Z,16.20
2023-01-09T06:02:54.616Z,14.70
2023-01-09T06:05:23.327Z,15.50
2023-01-09T06:07:54.849Z,16.60
2023-01-09T06:10:23.237Z,18.20
2023-01-09T06:12:53.271Z,35.00
2023-01-09T06:15:21.700Z,35.00
2023-01-09T06:17:50.523Z,29.20
2023-01-09T06:20:18.947Z,46.60
2023-01-09T06:22:47.349Z,19.50
2023-01-09T06:25:15.842Z,18.20
2023-01-09T06:27:44.166Z,16.60
2023-01-09T06:30:14.642Z,17.20
2023-01-09T06:32:43.064Z,17.70
2023-01-09T06:35:11.990Z,17.50
2023-01-09T06:37:40.463Z,17.00
2023-01-09T06:40:09.583Z,17.80
2023-01-09T06:42:37.930Z,18.90
2023-01-09T06:45:06.997Z,19.60
2023-01-09T06:47:35.316Z,19.70
2023-01-09T06:50:03.956Z,23.00
2023-01-09T06:52:32.291Z,56.60
2023-01-09T06:55:00.672Z,42.30
2023-01-09T06:57:29.053Z,20.20
2023-01-09T06:59:57.916Z,17.20
2023-01-09T07:02:26.333Z,16.60
2023-01-09T07:04:54.705Z,16.50
2023-01-09T07:07:23.039Z,15.90
2023-01-09T07:09:51.466Z,13.70
2023-01-09T07:12:19.826Z,15.40
2023-01-09T07:14:48.170Z,14.20
2023-01-09T07:17:16.497Z,14.20
2023-01-09T07:19:46.821Z,14.40
2023-01-09T07:22:15.042Z,13.80
2023-01-09T07:24:44.523Z,14.60
2023-01-09T07:27:14.830Z,16.10
2023-01-09T07:29:43.168Z,13.00
2023-01-09T07:32:11.643Z,14.20
2023-01-09T07:34:43.974Z,14.50
2023-01-09T07:37:12.363Z,14.10
2023-01-09T07:39:40.660Z,14.70
2023-01-09T07:42:08.995Z,15.50
2023-01-09T07:44:38.481Z,17.40
2023-01-09T07:47:06.916Z,15.80
2023-01-09T07:49:35.415Z,17.10
2023-01-09T07:52:05.052Z,18.40
2023-01-09T07:55:00.475Z,17.60
2023-01-09T07:57:30.792Z,17.60
2023-01-09T08:00:01.163Z,15.70
2023-01-09T08:02:40.582Z,16.80
2023-01-09T08:05:13.661Z,15.60
2023-01-09T08:07:43.076Z,20.90
2023-01-09T08:10:12.273Z,22.70
2023-01-09T08:12:43.877Z,28.40
2023-01-09T08:15:12.457Z,27.90
2023-01-09T08:17:43.251Z,27.70
2023-01-09T08:20:13.911Z,31.40
2023-01-09T08:22:43.628Z,34.60
2023-01-09T08:25:12.572Z,32.10
2023-01-09T08:27:41.347Z,30.00
2023-01-09T08:30:10.224Z,31.00
2023-01-09T08:32:39.497Z,30.50
2023-01-09T08:35:09.220Z,30.80
2023-01-09T08:37:37.552Z,27.70
2023-01-09T08:40:06.304Z,27.80
2023-01-09T08:42:53.352Z,26.30
2023-01-09T08:45:40.174Z,25.60
2023-01-09T08:48:08.661Z,24.60
2023-01-09T08:50:39.298Z,24.80
2023-01-09T08:53:07.599Z,26.50
2023-01-09T08:55:35.952Z,26.30
2023-01-09T08:58:04.457Z,25.50
2023-01-09T09:00:32.800Z,26.20
2023-01-09T09:03:01.727Z,24.20
2023-01-09T09:05:32.334Z,20.10
2023-01-09T09:08:00.703Z,17.90
2023-01-09T09:10:30.082Z,19.10
2023-01-09T09:12:59.617Z,15.70
2023-01-09T09:15:28.919Z,14.20
2023-01-09T09:18:02.275Z,19.60
2023-01-09T09:20:37.149Z,19.30
2023-01-09T09:23:05.963Z,16.40
2023-01-09T09:25:34.404Z,15.80
2023-01-09T09:28:03.088Z,11.40
2023-01-09T09:30:31.374Z,9.80
2023-01-09T09:32:59.702Z,9.00
2023-01-09T09:35:28.643Z,9.20
2023-01-09T09:37:59.243Z,11.70
2023-01-09T09:40:53.297Z,9.60
2023-01-09T09:44:10.880Z,7.90
2023-01-09T09:46:44.730Z,7.60
2023-01-09T09:49:21.563Z,6.00
2023-01-09T09:52:06.516Z,6.50
2023-01-09T09:54:41.148Z,6.50
2023-01-09T09:57:17.710Z,6.30
2023-01-09T09:59:51.548Z,6.50
2023-01-09T10:02:29.119Z,6.00
2023-01-09T10:05:05.408Z,6.10
2023-01-09T10:07:42.261Z,5.80
2023-01-09T10:10:37.274Z,5.80
2023-01-09T10:13:25.687Z,5.10
2023-01-09T10:16:22.525Z,6.10
2023-01-09T10:19:21.480Z,4.80
2023-01-09T10:22:02.317Z,4.70
2023-01-09T10:24:58.376Z,5.50
2023-01-09T10:27:45.538Z,5.40
2023-01-09T10:30:28.284Z,5.40
2023-01-09T10:33:17.221Z,5.40
2023-01-09T10:36:10.998Z,5.10
2023-01-09T10:38:47.615Z,5.30
2023-01-09T10:41:27.413Z,5.60
2023-01-09T10:44:03.267Z,4.90
2023-01-09T10:46:43.992Z,6.60
2023-01-09T10:49:17.881Z,5.80
2023-01-09T10:51:50.171Z,5.70
2023-01-09T10:54:22.375Z,5.40
2023-01-09T10:57:07.415Z,5.10
2023-01-09T10:59:35.797Z,5.60
2023-01-09T11:02:04.296Z,6.60
2023-01-09T11:04:37.770Z,5.30
2023-01-09T11:07:24.951Z,5.60
2023-01-09T11:10:04.449Z,11.40
2023-01-09T11:12:37.620Z,10.60
2023-01-09T11:15:21.373Z,9.70
2023-01-09T11:17:52.046Z,6.90
2023-01-09T11:20:23.503Z,6.40
2023-01-09T11:23:00.418Z,7.80
2023-01-09T11:25:30.818Z,8.80
2023-01-09T11:28:09.993Z,10.20
2023-01-09T11:30:55.577Z,8.10
2023-01-09T11:33:26.209Z,8.10
2023-01-09T11:36:02.110Z,7.10
2023-01-09T11:38:45.927Z,6.80
2023-01-09T11:41:21.215Z,7.10
2023-01-09T11:43:54.675Z,5.60
2023-01-09T11:46:44.321Z,5.50
2023-01-09T11:49:13.724Z,5.20
2023-01-09T11:51:43.263Z,5.10
2023-01-09T11:54:24.170Z,4.70
2023-01-09T11:56:56.151Z,4.70
2023-01-09T11:59:32.976Z,4.40
2023-01-09T12:02:46.172Z,3.80
2023-01-09T12:05:46.772Z,3.30
2023-01-09T12:08:36.662Z,3.30
2023-01-09T12:11:15.035Z,3.50
2023-01-09T12:13:52.486Z,3.50
2023-01-09T12:16:35.703Z,3.50
2023-01-09T12:19:28.623Z,3.10
2023-01-09T12:22:23.398Z,3.00
2023-01-09T12:25:03.878Z,3.10
2023-01-09T12:28:09.492Z,3.60
2023-01-09T12:31:26.049Z,3.20
2023-01-09T12:39:56.590Z,3.60
2023-01-09T12:42:46.039Z,3.40
2023-01-09T12:45:36.415Z,3.40
2023-01-09T12:48:43.723Z,3.30
2023-01-09T12:51:24.381Z,3.30
2023-01-09T12:54:03.688Z,3.60
2023-01-09T12:56:42.069Z,7.20
2023-01-09T12:59:39.136Z,4.00
2023-01-09T13:02:30.776Z,3.80
2023-01-09T13:05:28.658Z,3.70
2023-01-09T13:08:07.042Z,4.30
2023-01-09T13:10:42.498Z,4.00
2023-01-09T13:13:36.592Z,4.70
2023-01-09T13:16:15.945Z,4.20
2023-01-09T13:19:03.520Z,3.70
2023-01-09T13:21:35.599Z,4.00
2023-01-09T13:24:37.884Z,3.80
2023-01-09T13:28:05.274Z,3.70
2023-01-09T13:31:02.334Z,3.80
2023-01-09T13:33:38.761Z,3.30
2023-01-09T13:36:08.156Z,3.30
2023-01-09T13:38:38.867Z,3.80
2023-01-09T13:41:33.707Z,3.50
2023-01-09T13:44:07.979Z,3.40
2023-01-09T13:46:44.399Z,3.90
2023-01-09T13:49:44.160Z,3.30
2023-01-09T13:52:24.863Z,3.90
2023-01-09T13:54:58.460Z,4.10
2023-01-09T13:57:35.976Z,4.40
2023-01-09T14:00:15.015Z,4.80
2023-01-09T14:02:46.842Z,4.60
2023-01-09T14:05:36.836Z,4.30
2023-01-09T14:08:30.576Z,4.70
2023-01-09T14:11:01.331Z,4.80
2023-01-09T14:13:45.778Z,5.10
2023-01-09T14:16:25.741Z,5.20
2023-01-09T14:19:24.828Z,5.00
2023-01-09T14:21:58.692Z,5.70
2023-01-09T14:24:44.081Z,5.90
2023-01-09T14:30:28.313Z,7.60
2023-01-09T14:33:18.979Z,8.80
2023-01-09T14:36:15.062Z,9.60
2023-01-09T14:38:48.361Z,9.60
2023-01-09T14:41:57.011Z,9.00
2023-01-09T14:44:44.981Z,9.40
2023-01-09T14:47:36.559Z,8.20
2023-01-09T14:50:19.226Z,7.90
2023-01-09T14:53:06.243Z,6.60
2023-01-09T14:55:58.627Z,6.20
2023-01-09T14:58:28.419Z,7.20
2023-01-09T15:01:06.237Z,7.10
2023-01-09T15:03:40.990Z,7.10
2023-01-09T15:06:18.753Z,8.00
2023-01-09T15:08:51.817Z,8.30
2023-01-09T15:11:20.361Z,7.60
2023-01-09T15:13:53.569Z,8.30
2023-01-09T15:16:25.104Z,9.30
2023-01-09T15:19:07.760Z,8.60
2023-01-09T15:21:36.210Z,8.30
2023-01-09T15:24:30.715Z,9.90
2023-01-09T15:27:50.535Z,13.50
2023-01-09T15:30:24.436Z,12.80
2023-01-09T15:32:55.214Z,10.70
2023-01-09T15:35:25.002Z,11.50
2023-01-09T15:38:02.863Z,10.80
2023-01-09T15:40:36.268Z,10.70
2023-01-09T15:43:04.774Z,10.50
2023-01-09T15:45:42.508Z,11.40
2023-01-09T15:48:35.071Z,9.80
2023-01-09T15:51:10.342Z,8.30
2023-01-09T15:53:41.341Z,8.30
2023-01-09T15:56:12.527Z,6.60
2023-01-09T15:58:47.379Z,7.60
2023-01-09T16:01:40.769Z,7.10
2023-01-09T16:04:13.152Z,6.90
2023-01-09T16:06:46.957Z,7.30
2023-01-09T16:09:23.839Z,7.20
2023-01-09T16:12:46.533Z,7.60
2023-01-09T16:15:18.479Z,7.80
2023-01-09T16:18:17.889Z,8.50
2023-01-09T16:20:46.498Z,8.20
2023-01-09T16:23:31.839Z,8.40
2023-01-09T16:26:07.202Z,9.10
2023-01-09T16:28:35.659Z,13.80
2023-01-09T16:31:09.961Z,13.90
2023-01-09T16:33:48.802Z,20.00
2023-01-09T16:36:17.388Z,18.30
2023-01-09T16:38:46.226Z,15.90
2023-01-09T16:41:38.417Z,18.50
2023-01-09T16:44:10.048Z,16.30
2023-01-09T16:46:44.372Z,13.20
2023-01-09T16:49:24.581Z,10.40
2023-01-09T16:51:53.535Z,10.10
2023-01-09T16:54:22.298Z,11.80
2023-01-09T16:56:53.654Z,13.20
2023-01-09T16:59:27.177Z,13.90
2023-01-09T17:01:58.400Z,14.90
2023-01-09T17:04:27.169Z,14.90
2023-01-09T17:06:58.487Z,15.30
2023-01-09T17:09:27.796Z,16.20
2023-01-09T17:11:57.801Z,17.00
2023-01-09T17:14:28.831Z,17.80
2023-01-09T17:16:58.209Z,15.70
2023-01-09T17:19:26.764Z,19.00
2023-01-09T17:21:55.157Z,19.40
2023-01-09T17:24:42.289Z,21.10
2023-01-09T17:27:29.894Z,22.00
2023-01-09T17:30:05.578Z,23.10
2023-01-09T17:32:42.133Z,28.70
2023-01-09T17:35:13.184Z,22.10
2023-01-09T17:37:43.089Z,21.30
2023-01-09T17:40:23.199Z,21.70
2023-01-09T17:42:51.611Z,22.50
2023-01-09T17:45:21.341Z,25.40
2023-01-09T17:47:49.780Z,27.90
2023-01-09T17:50:21.056Z,28.90
2023-01-09T17:52:51.007Z,26.70
2023-01-09T17:55:19.675Z,19.20
2023-01-09T17:57:48.114Z,16.40
2023-01-09T18:00:36.928Z,22.20
2023-01-09T18:03:07.592Z,27.90
2023-01-09T18:05:37.211Z,25.10
2023-01-09T18:08:09.355Z,20.90
2023-01-09T18:10:37.934Z,16.50
2023-01-09T18:13:06.882Z,15.30
2023-01-09T18:15:35.385Z,15.50
2023-01-09T18:18:06.591Z,14.70
2023-01-09T18:20:45.310Z,13.60
2023-01-09T18:23:16.601Z,15.30
2023-01-09T18:25:45.153Z,16.10
2023-01-09T18:28:16.281Z,19.20
2023-01-09T18:30:47.516Z,19.70
2023-01-09T18:33:18.721Z,21.40
2023-01-09T18:35:47.306Z,23.70
2023-01-09T18:38:23.462Z,31.90
2023-01-09T18:40:52.068Z,44.00
2023-01-09T18:43:21.603Z,46.20
2023-01-09T18:45:50.093Z,43.90
2023-01-09T18:48:18.636Z,44.00
2023-01-09T18:50:58.747Z,53.60
2023-01-09T18:53:27.263Z,61.40
2023-01-09T18:55:58.368Z,77.10
2023-01-09T18:58:26.788Z,73.10
2023-01-09T19:00:56.373Z,69.20
2023-01-09T19:03:24.899Z,63.00
2023-01-09T19:05:53.188Z,66.50
2023-01-09T19:08:21.662Z,70.20
2023-01-09T19:10:53.500Z,67.80
2023-01-09T19:13:22.110Z,64.00
2023-01-09T19:15:55.888Z,70.20
2023-01-09T19:18:28.791Z,59.70
2023-01-09T19:20:57.275Z,63.50
2023-01-09T19:23:25.670Z,51.20
2023-01-09T19:25:54.791Z,39.00
2023-01-09T19:28:23.421Z,38.30
2023-01-09T19:30:59.219Z,36.10
2023-01-09T19:33:28.215Z,37.50
2023-01-09T19:35:56.753Z,60.60
2023-01-09T19:38:26.893Z,47.80
2023-01-09T19:40:58.198Z,34.70
2023-01-09T19:43:29.851Z,28.50
2023-01-09T19:45:58.439Z,29.80
2023-01-09T19:48:29.125Z,30.90
2023-01-09T19:51:06.069Z,31.70
2023-01-09T19:53:38.963Z,32.90
2023-01-09T19:56:14.774Z,36.70
2023-01-09T19:58:52.212Z,37.90
2023-01-09T20:01:26.494Z,29.40
2023-01-09T20:04:03.008Z,27.10
2023-01-09T20:06:32.778Z,36.30
2023-01-09T20:09:03.755Z,39.10
2023-01-09T20:11:33.367Z,38.40
2023-01-09T20:14:05.644Z,41.70
2023-01-09T20:16:34.127Z,41.20
2023-01-09T20:19:08.793Z,46.30
2023-01-09T20:21:37.850Z,39.40
2023-01-09T20:24:11.144Z,42.80
2023-01-09T20:26:40.721Z,39.90
2023-01-09T20:29:12.758Z,40.30
2023-01-09T20:31:46.890Z,42.30
2023-01-09T20:34:17.422Z,38.70
2023-01-09T20:36:46.455Z,37.80
2023-01-09T20:39:15.012Z,37.60
2023-01-09T20:41:46.275Z,37.80
2023-01-09T20:44:16.860Z,41.60
2023-01-09T20:46:48.259Z,45.20
2023-01-09T20:49:20.628Z,46.30
2023-01-09T20:51:52.343Z,43.50
2023-01-09T20:54:21.807Z,40.50
2023-01-09T20:56:53.719Z,44.40
2023-01-09T20:59:27.585Z,43.10
2023-01-09T21:01:56.144Z,40.90
2023-01-09T21:04:24.891Z,43.40
2023-01-09T21:06:53.355Z,43.70
2023-01-09T21:09:22.072Z,44.00
2023-01-09T21:11:58.113Z,47.20
2023-01-09T21:14:26.817Z,45.30
2023-01-09T21:16:55.514Z,36.70
2023-01-09T21:19:27.093Z,36.30
2023-01-09T21:21:58.877Z,35.40
2023-01-09T21:24:32.274Z,36.60
2023-01-09T21:27:00.739Z,43.60
2023-01-09T21:29:31.798Z,38.20
2023-01-09T21:32:08.693Z,37.00
2023-01-09T21:34:42.241Z,36.00
2023-01-09T21:37:12.715Z,39.50
2023-01-09T21:39:41.798Z,45.60
2023-01-09T21:42:31.911Z,62.00
2023-01-09T21:45:18.899Z,78.10
2023-01-09T21:47:47.815Z,75.90
2023-01-09T21:50:17.489Z,65.10
2023-01-09T21:52:45.962Z,57.00
2023-01-09T21:55:14.633Z,48.10
2023-01-09T21:57:43.028Z,44.90
2023-01-09T22:00:11.923Z,45.40
2023-01-09T22:02:41.135Z,48.60
2023-01-09T22:05:15.008Z,80.70
2023-01-09T22:07:43.355Z,83.10
2023-01-09T22:10:12.544Z,62.30
2023-01-09T22:13:00.865Z,68.10
2023-01-09T22:15:29.557Z,58.70
2023-01-09T22:18:00.447Z,48.40
2023-01-09T22:20:29.138Z,41.80
2023-01-09T22:22:57.599Z,38.70
2023-01-09T22:25:25.966Z,38.40
2023-01-09T22:27:54.336Z,37.00
2023-01-09T22:30:22.642Z,35.60
2023-01-09T22:32:51.036Z,35.10
2023-01-09T22:35:19.506Z,35.40
2023-01-09T22:37:52.282Z,36.40
2023-01-09T22:40:20.892Z,37.30
2023-01-09T22:42:52.980Z,38.30
2023-01-09T22:45:22.114Z,37.50
2023-01-09T22:47:54.004Z,38.40
2023-01-09T22:50:23.127Z,39.20
2023-01-09T22:52:54.390Z,40.50
2023-01-09T22:55:28.967Z,37.70
2023-01-09T22:57:57.263Z,37.20
2023-01-09T23:00:25.663Z,36.70
2023-01-09T23:08:48.048Z,37.60
2023-01-09T23:11:55.365Z,37.10
2023-01-09T23:14:23.524Z,38.30
2023-01-09T23:16:51.766Z,37.20
2023-01-09T23:19:20.038Z,36.30
2023-01-09T23:21:48.562Z,34.40
2023-01-09T23:24:17.987Z,35.00
2023-01-09T23:26:46.590Z,34.80
2023-01-09T23:29:15.133Z,35.00
2023-01-09T23:31:43.398Z,36.80
2023-01-09T23:34:19.848Z,36.60
2023-01-09T23:36:49.608Z,36.50
2023-01-09T23:39:17.970Z,37.70
2023-01-09T23:42:04.881Z,37.90
2023-01-09T23:44:36.486Z,38.20
2023-01-09T23:47:05.398Z,37.30
2023-01-09T23:49:33.662Z,37.60
2023-01-09T23:52:05.008Z,38.10
2023-01-09T23:54:33.141Z,36.10
2023-01-09T23:57:27.314Z,36.80
2023-01-09T23:59:55.528Z,36.30
